RVV17 PACD-PADU
Flight info
| Callsign | RVV17 |
|---|---|
| Flight time | 0h 52m |
| Altitude | 14000 |
| Route | CDB DUT |
| Aircraft | YS11/M-VW/C |
Departure
| Time | 2026-04-20 22:37 |
|---|---|
| Airport | Cold Bay Airport (PACD) |
Arrival
| Time | 2026-04-20 23:29 |
|---|---|
| Airport | Tom Madsen (Dutch Harbor) Airport (PADU) |
| Time | Latitude | Longitude | Altitude | Speed | Heading |
|---|---|---|---|---|---|
| 2026-04-20 21:52 | 55.20151 | -162.71990 | 143 ft | 0 kts | 15° |
| 2026-04-20 22:29 | 55.20154 | -162.71988 | 142 ft | 2 kts | 14° |
| 2026-04-20 22:29 | 55.20182 | -162.71987 | 143 ft | 4 kts | 338° |
| 2026-04-20 22:29 | 55.20194 | -162.72000 | 143 ft | 0 kts | 308° |
| 2026-04-20 22:30 | 55.20202 | -162.72025 | 143 ft | 1 kts | 262° |
| 2026-04-20 22:30 | 55.20172 | -162.72138 | 143 ft | 17 kts | 241° |
| 2026-04-20 22:30 | 55.20115 | -162.72278 | 142 ft | 6 kts | 210° |
| 2026-04-20 22:30 | 55.20055 | -162.72302 | 142 ft | 21 kts | 175° |
| 2026-04-20 22:31 | 55.19962 | -162.72227 | 141 ft | 13 kts | 156° |
| 2026-04-20 22:31 | 55.19866 | -162.72097 | 141 ft | 21 kts | 107° |
| 2026-04-20 22:31 | 55.19845 | -162.71789 | 142 ft | 25 kts | 95° |
| 2026-04-20 22:31 | 55.19829 | -162.71493 | 143 ft | 28 kts | 96° |
| 2026-04-20 22:32 | 55.19811 | -162.71108 | 147 ft | 33 kts | 94° |
| 2026-04-20 22:32 | 55.19786 | -162.70735 | 151 ft | 29 kts | 99° |
| 2026-04-20 22:32 | 55.19758 | -162.70349 | 151 ft | 29 kts | 96° |
| 2026-04-20 22:32 | 55.19774 | -162.70314 | 152 ft | 0 kts | 271° |
| 2026-04-20 22:33 | 55.19774 | -162.70316 | 152 ft | 3 kts | 271° |
| 2026-04-20 22:33 | 55.19774 | -162.70320 | 152 ft | 0 kts | 271° |
| 2026-04-20 22:35 | 55.19774 | -162.70319 | 152 ft | 0 kts | 271° |
| 2026-04-20 22:36 | 55.19781 | -162.70516 | 150 ft | 51 kts | 274° |
| 2026-04-20 22:36 | 55.19825 | -162.71443 | 144 ft | 96 kts | 275° |
| 2026-04-20 22:36 | 55.19896 | -162.72721 | 301 ft | 109 kts | 272° |
| 2026-04-20 22:37 | 55.20142 | -162.74003 | 618 ft | 119 kts | 293° |
| 2026-04-20 22:37 | 55.20877 | -162.75051 | 688 ft | 157 kts | 330° |
| 2026-04-20 22:37 | 55.22048 | -162.75304 | 766 ft | 186 kts | 359° |
| 2026-04-20 22:37 | 55.23351 | -162.75215 | 1123 ft | 189 kts | 357° |
| 2026-04-20 22:38 | 55.24671 | -162.75382 | 1466 ft | 191 kts | 339° |
| 2026-04-20 22:38 | 55.25783 | -162.76553 | 1753 ft | 187 kts | 306° |
| 2026-04-20 22:38 | 55.26312 | -162.78532 | 2146 ft | 178 kts | 274° |
| 2026-04-20 22:38 | 55.26043 | -162.80551 | 2522 ft | 173 kts | 236° |
| 2026-04-20 22:39 | 55.25250 | -162.82152 | 2892 ft | 174 kts | 231° |
| 2026-04-20 22:39 | 55.24511 | -162.83827 | 3258 ft | 173 kts | 241° |
| 2026-04-20 22:39 | 55.23944 | -162.85678 | 3642 ft | 172 kts | 245° |
| 2026-04-20 22:39 | 55.23402 | -162.87557 | 3986 ft | 173 kts | 244° |
| 2026-04-20 22:40 | 55.22806 | -162.89337 | 4510 ft | 166 kts | 240° |
| 2026-04-20 22:40 | 55.22207 | -162.91025 | 5067 ft | 161 kts | 242° |
| 2026-04-20 22:40 | 55.21659 | -162.92697 | 5611 ft | 156 kts | 244° |
| 2026-04-20 22:40 | 55.21137 | -162.94351 | 6137 ft | 156 kts | 244° |
| 2026-04-20 22:41 | 55.20597 | -162.96005 | 6567 ft | 157 kts | 244° |
| 2026-04-20 22:41 | 55.20040 | -162.97652 | 6995 ft | 157 kts | 244° |
| 2026-04-20 22:41 | 55.19487 | -162.99308 | 7442 ft | 158 kts | 244° |
| 2026-04-20 22:41 | 55.18943 | -163.00976 | 7896 ft | 158 kts | 244° |
| 2026-04-20 22:42 | 55.18396 | -163.02646 | 8332 ft | 158 kts | 244° |
| 2026-04-20 22:42 | 55.17841 | -163.04317 | 8774 ft | 159 kts | 243° |
| 2026-04-20 22:42 | 55.17285 | -163.05988 | 9222 ft | 159 kts | 243° |
| 2026-04-20 22:42 | 55.16738 | -163.07642 | 9668 ft | 159 kts | 243° |
| 2026-04-20 22:43 | 55.16183 | -163.09323 | 10117 ft | 160 kts | 243° |
| 2026-04-20 22:43 | 55.15626 | -163.11005 | 10538 ft | 159 kts | 243° |
| 2026-04-20 22:43 | 55.15068 | -163.12678 | 10983 ft | 159 kts | 244° |
| 2026-04-20 22:43 | 55.14510 | -163.14346 | 11428 ft | 159 kts | 243° |
| 2026-04-20 22:44 | 55.13949 | -163.16014 | 11854 ft | 159 kts | 243° |
| 2026-04-20 22:44 | 55.13385 | -163.17682 | 12295 ft | 159 kts | 243° |
| 2026-04-20 22:44 | 55.12818 | -163.19348 | 12741 ft | 160 kts | 243° |
| 2026-04-20 22:44 | 55.12247 | -163.21018 | 13193 ft | 161 kts | 243° |
| 2026-04-20 22:45 | 55.11670 | -163.22698 | 13664 ft | 162 kts | 243° |
| 2026-04-20 22:45 | 55.11088 | -163.24386 | 14108 ft | 163 kts | 243° |
| 2026-04-20 22:45 | 55.10499 | -163.26084 | 14523 ft | 163 kts | 243° |
| 2026-04-20 22:45 | 55.09907 | -163.27781 | 14937 ft | 164 kts | 243° |
| 2026-04-20 22:46 | 55.09301 | -163.29517 | 15136 ft | 175 kts | 243° |
| 2026-04-20 22:46 | 55.08637 | -163.31437 | 14981 ft | 195 kts | 243° |
| 2026-04-20 22:46 | 55.07910 | -163.33553 | 14707 ft | 209 kts | 243° |
| 2026-04-20 22:46 | 55.07162 | -163.35729 | 14411 ft | 206 kts | 243° |
| 2026-04-20 22:47 | 55.06428 | -163.37837 | 14096 ft | 202 kts | 243° |
| 2026-04-20 22:47 | 55.05698 | -163.39914 | 14059 ft | 200 kts | 243° |
| 2026-04-20 22:47 | 55.04964 | -163.41994 | 14084 ft | 203 kts | 243° |
| 2026-04-20 22:47 | 55.04218 | -163.44101 | 14092 ft | 206 kts | 243° |
| 2026-04-20 22:48 | 55.03458 | -163.46241 | 14096 ft | 209 kts | 243° |
| 2026-04-20 22:48 | 55.02689 | -163.48401 | 14119 ft | 211 kts | 242° |
| 2026-04-20 22:48 | 55.01908 | -163.50580 | 14134 ft | 212 kts | 242° |
| 2026-04-20 22:48 | 55.01123 | -163.52763 | 14144 ft | 213 kts | 242° |
| 2026-04-20 22:49 | 55.00351 | -163.54900 | 14134 ft | 213 kts | 242° |
| 2026-04-20 22:49 | 54.99543 | -163.57122 | 14138 ft | 213 kts | 242° |
| 2026-04-20 22:49 | 54.98748 | -163.59298 | 14132 ft | 213 kts | 242° |
| 2026-04-20 22:49 | 54.97952 | -163.61463 | 14114 ft | 212 kts | 242° |
| 2026-04-20 22:50 | 54.97153 | -163.63624 | 14110 ft | 212 kts | 242° |
| 2026-04-20 22:50 | 54.96352 | -163.65778 | 14102 ft | 212 kts | 242° |
| 2026-04-20 22:50 | 54.95550 | -163.67922 | 14099 ft | 211 kts | 241° |
| 2026-04-20 22:50 | 54.94744 | -163.70063 | 14074 ft | 212 kts | 241° |
| 2026-04-20 22:51 | 54.93932 | -163.72216 | 14089 ft | 214 kts | 241° |
| 2026-04-20 22:51 | 54.93113 | -163.74381 | 14098 ft | 215 kts | 240° |
| 2026-04-20 22:51 | 54.92288 | -163.76548 | 14106 ft | 215 kts | 240° |
| 2026-04-20 22:51 | 54.91459 | -163.78715 | 14104 ft | 215 kts | 240° |
| 2026-04-20 22:52 | 54.90627 | -163.80878 | 14113 ft | 215 kts | 240° |
| 2026-04-20 22:52 | 54.89793 | -163.83037 | 14117 ft | 215 kts | 240° |
| 2026-04-20 22:52 | 54.88957 | -163.85189 | 14115 ft | 215 kts | 240° |
| 2026-04-20 22:52 | 54.88115 | -163.87345 | 14115 ft | 216 kts | 240° |
| 2026-04-20 22:53 | 54.87555 | -163.88771 | 14121 ft | 216 kts | 240° |
| 2026-04-20 22:53 | 54.86421 | -163.91648 | 14104 ft | 216 kts | 240° |
| 2026-04-20 22:53 | 54.85570 | -163.93792 | 14097 ft | 216 kts | 239° |
| 2026-04-20 22:53 | 54.84716 | -163.95932 | 14104 ft | 216 kts | 239° |
| 2026-04-20 22:54 | 54.83856 | -163.98074 | 14139 ft | 216 kts | 239° |
| 2026-04-20 22:54 | 54.82993 | -164.00213 | 14149 ft | 217 kts | 239° |
| 2026-04-20 22:54 | 54.82125 | -164.02354 | 14136 ft | 217 kts | 239° |
| 2026-04-20 22:54 | 54.81254 | -164.04488 | 14122 ft | 217 kts | 239° |
| 2026-04-20 22:55 | 54.80382 | -164.06614 | 14119 ft | 216 kts | 239° |
| 2026-04-20 22:55 | 54.79517 | -164.08708 | 14137 ft | 217 kts | 239° |
| 2026-04-20 22:55 | 54.78625 | -164.10854 | 14159 ft | 217 kts | 238° |
| 2026-04-20 22:55 | 54.77739 | -164.12962 | 14160 ft | 216 kts | 238° |
| 2026-04-20 22:56 | 54.76850 | -164.15066 | 14168 ft | 216 kts | 237° |
| 2026-04-20 22:56 | 54.75970 | -164.17139 | 14139 ft | 217 kts | 237° |
| 2026-04-20 22:56 | 54.75077 | -164.19234 | 14127 ft | 216 kts | 237° |
| 2026-04-20 22:56 | 54.74176 | -164.21357 | 14127 ft | 216 kts | 236° |
| 2026-04-20 22:57 | 54.73282 | -164.23462 | 14153 ft | 217 kts | 236° |
| 2026-04-20 22:57 | 54.72395 | -164.25543 | 14138 ft | 218 kts | 236° |
| 2026-04-20 22:57 | 54.71482 | -164.27674 | 14123 ft | 218 kts | 235° |
| 2026-04-20 22:57 | 54.70570 | -164.29776 | 14120 ft | 218 kts | 236° |
| 2026-04-20 22:58 | 54.69672 | -164.31832 | 14117 ft | 218 kts | 235° |
| 2026-04-20 22:58 | 54.68757 | -164.33918 | 14115 ft | 217 kts | 235° |
| 2026-04-20 22:58 | 54.67829 | -164.36024 | 14110 ft | 217 kts | 235° |
| 2026-04-20 22:58 | 54.66909 | -164.38099 | 14132 ft | 218 kts | 235° |
| 2026-04-20 22:59 | 54.65998 | -164.40144 | 14132 ft | 218 kts | 235° |
| 2026-04-20 22:59 | 54.65070 | -164.42218 | 14133 ft | 218 kts | 235° |
| 2026-04-20 22:59 | 54.64131 | -164.44310 | 14087 ft | 218 kts | 235° |
| 2026-04-20 22:59 | 54.63199 | -164.46366 | 14129 ft | 217 kts | 234° |
| 2026-04-20 23:00 | 54.62275 | -164.48392 | 14116 ft | 218 kts | 234° |
| 2026-04-20 23:00 | 54.61334 | -164.50442 | 14134 ft | 217 kts | 234° |
| 2026-04-20 23:00 | 54.60393 | -164.52480 | 14155 ft | 217 kts | 234° |
| 2026-04-20 23:00 | 54.59449 | -164.54513 | 14140 ft | 217 kts | 234° |
| 2026-04-20 23:01 | 54.58505 | -164.56541 | 14131 ft | 217 kts | 234° |
| 2026-04-20 23:01 | 54.57556 | -164.58574 | 14121 ft | 217 kts | 234° |
| 2026-04-20 23:01 | 54.56616 | -164.60593 | 14047 ft | 215 kts | 234° |
| 2026-04-20 23:01 | 54.55681 | -164.62598 | 14068 ft | 214 kts | 234° |
| 2026-04-20 23:02 | 54.54745 | -164.64590 | 14090 ft | 214 kts | 234° |
| 2026-04-20 23:02 | 54.53803 | -164.66590 | 14095 ft | 216 kts | 233° |
| 2026-04-20 23:02 | 54.52853 | -164.68599 | 14047 ft | 216 kts | 233° |
| 2026-04-20 23:02 | 54.51898 | -164.70597 | 14140 ft | 216 kts | 233° |
| 2026-04-20 23:03 | 54.50936 | -164.72597 | 14158 ft | 217 kts | 233° |
| 2026-04-20 23:03 | 54.49968 | -164.74600 | 14166 ft | 218 kts | 233° |
| 2026-04-20 23:03 | 54.48997 | -164.76612 | 14165 ft | 218 kts | 234° |
| 2026-04-20 23:03 | 54.48417 | -164.78976 | 14162 ft | 218 kts | 260° |
| 2026-04-20 23:04 | 54.48343 | -164.81590 | 14164 ft | 220 kts | 265° |
| 2026-04-20 23:04 | 54.48345 | -164.83338 | 14161 ft | 220 kts | 266° |
| 2026-04-20 23:04 | 54.48368 | -164.85969 | 14164 ft | 220 kts | 266° |
| 2026-04-20 23:04 | 54.48390 | -164.88593 | 14148 ft | 219 kts | 266° |
| 2026-04-20 23:05 | 54.48402 | -164.91211 | 14137 ft | 219 kts | 266° |
| 2026-04-20 23:05 | 54.48401 | -164.93826 | 14136 ft | 218 kts | 265° |
| 2026-04-20 23:05 | 54.48224 | -164.96393 | 14163 ft | 216 kts | 255° |
| 2026-04-20 23:05 | 54.47818 | -164.98882 | 14179 ft | 216 kts | 250° |
| 2026-04-20 23:06 | 54.47298 | -165.01317 | 14168 ft | 217 kts | 247° |
| 2026-04-20 23:06 | 54.46705 | -165.03694 | 14154 ft | 216 kts | 245° |
| 2026-04-20 23:06 | 54.46061 | -165.06027 | 14141 ft | 216 kts | 244° |
| 2026-04-20 23:06 | 54.45386 | -165.08323 | 14120 ft | 215 kts | 243° |
| 2026-04-20 23:07 | 54.44699 | -165.10606 | 14116 ft | 215 kts | 243° |
| 2026-04-20 23:07 | 54.44006 | -165.12886 | 14113 ft | 215 kts | 243° |
| 2026-04-20 23:07 | 54.43098 | -165.14907 | 14112 ft | 219 kts | 221° |
| 2026-04-20 23:07 | 54.41806 | -165.16328 | 14117 ft | 220 kts | 219° |
| 2026-04-20 23:08 | 54.40599 | -165.17924 | 14117 ft | 219 kts | 225° |
| 2026-04-20 23:08 | 54.39484 | -165.19689 | 14117 ft | 218 kts | 228° |
| 2026-04-20 23:08 | 54.38443 | -165.21566 | 14114 ft | 217 kts | 231° |
| 2026-04-20 23:08 | 54.37455 | -165.23516 | 14113 ft | 216 kts | 232° |
| 2026-04-20 23:09 | 54.36491 | -165.25494 | 14111 ft | 216 kts | 233° |
| 2026-04-20 23:09 | 54.35537 | -165.27484 | 14104 ft | 217 kts | 233° |
| 2026-04-20 23:09 | 54.34638 | -165.29568 | 14110 ft | 217 kts | 239° |
| 2026-04-20 23:09 | 54.33859 | -165.31784 | 14112 ft | 217 kts | 241° |
| 2026-04-20 23:10 | 54.33092 | -165.34015 | 14110 ft | 217 kts | 239° |
| 2026-04-20 23:10 | 54.32262 | -165.36177 | 14114 ft | 217 kts | 237° |
| 2026-04-20 23:10 | 54.31422 | -165.38330 | 14109 ft | 217 kts | 238° |
| 2026-04-20 23:10 | 54.30623 | -165.40522 | 14109 ft | 217 kts | 239° |
| 2026-04-20 23:11 | 54.29825 | -165.42719 | 14107 ft | 217 kts | 239° |
| 2026-04-20 23:11 | 54.29003 | -165.44884 | 14112 ft | 217 kts | 238° |
| 2026-04-20 23:11 | 54.28176 | -165.47056 | 14117 ft | 217 kts | 238° |
| 2026-04-20 23:11 | 54.27368 | -165.49241 | 14117 ft | 218 kts | 239° |
| 2026-04-20 23:12 | 54.26568 | -165.51403 | 14132 ft | 218 kts | 238° |
| 2026-04-20 23:12 | 54.25778 | -165.53500 | 13935 ft | 200 kts | 238° |
| 2026-04-20 23:12 | 54.25047 | -165.55430 | 13562 ft | 189 kts | 238° |
| 2026-04-20 23:12 | 54.24353 | -165.57293 | 13153 ft | 183 kts | 238° |
| 2026-04-20 23:13 | 54.23682 | -165.59098 | 12748 ft | 177 kts | 238° |
| 2026-04-20 23:13 | 54.23028 | -165.60840 | 12350 ft | 172 kts | 237° |
| 2026-04-20 23:13 | 54.22388 | -165.62537 | 11957 ft | 168 kts | 237° |
| 2026-04-20 23:13 | 54.21759 | -165.64210 | 11568 ft | 167 kts | 237° |
| 2026-04-20 23:14 | 54.21133 | -165.65881 | 11174 ft | 167 kts | 237° |
| 2026-04-20 23:14 | 54.20510 | -165.67543 | 10804 ft | 166 kts | 236° |
| 2026-04-20 23:14 | 54.19889 | -165.69194 | 10435 ft | 165 kts | 236° |
| 2026-04-20 23:14 | 54.19271 | -165.70837 | 10060 ft | 163 kts | 236° |
| 2026-04-20 23:15 | 54.18660 | -165.72461 | 9660 ft | 162 kts | 235° |
| 2026-04-20 23:15 | 54.18048 | -165.74082 | 9258 ft | 162 kts | 235° |
| 2026-04-20 23:15 | 54.17432 | -165.75717 | 8851 ft | 169 kts | 235° |
| 2026-04-20 23:15 | 54.16768 | -165.77477 | 8480 ft | 181 kts | 235° |
| 2026-04-20 23:16 | 54.16077 | -165.79337 | 8002 ft | 190 kts | 235° |
| 2026-04-20 23:16 | 54.15366 | -165.81239 | 7658 ft | 190 kts | 234° |
| 2026-04-20 23:16 | 54.14640 | -165.83124 | 7299 ft | 191 kts | 234° |
| 2026-04-20 23:16 | 54.13918 | -165.85025 | 6971 ft | 190 kts | 234° |
| 2026-04-20 23:17 | 54.13235 | -165.86884 | 7039 ft | 183 kts | 234° |
| 2026-04-20 23:17 | 54.12545 | -165.88707 | 7094 ft | 183 kts | 234° |
| 2026-04-20 23:17 | 54.11845 | -165.90534 | 7125 ft | 185 kts | 234° |
| 2026-04-20 23:17 | 54.11146 | -165.92379 | 7076 ft | 185 kts | 235° |
| 2026-04-20 23:18 | 54.10454 | -165.94212 | 7050 ft | 182 kts | 234° |
| 2026-04-20 23:18 | 54.09778 | -165.96021 | 7107 ft | 181 kts | 235° |
| 2026-04-20 23:18 | 54.09100 | -165.97838 | 7082 ft | 182 kts | 234° |
| 2026-04-20 23:18 | 54.08421 | -165.99653 | 7097 ft | 182 kts | 234° |
| 2026-04-20 23:19 | 54.07733 | -166.01448 | 7141 ft | 182 kts | 234° |
| 2026-04-20 23:19 | 54.07041 | -166.03259 | 7134 ft | 182 kts | 234° |
| 2026-04-20 23:19 | 54.06358 | -166.05081 | 7114 ft | 183 kts | 236° |
| 2026-04-20 23:19 | 54.05749 | -166.06991 | 7124 ft | 184 kts | 239° |
| 2026-04-20 23:20 | 54.05188 | -166.08947 | 7114 ft | 184 kts | 240° |
| 2026-04-20 23:20 | 54.04644 | -166.10918 | 7113 ft | 184 kts | 241° |
| 2026-04-20 23:20 | 54.04109 | -166.12895 | 7106 ft | 184 kts | 241° |
| 2026-04-20 23:20 | 54.03580 | -166.14872 | 7112 ft | 181 kts | 241° |
| 2026-04-20 23:21 | 54.03094 | -166.16715 | 7037 ft | 162 kts | 241° |
| 2026-04-20 23:21 | 54.02647 | -166.18437 | 6732 ft | 160 kts | 241° |
| 2026-04-20 23:21 | 54.02233 | -166.20219 | 6310 ft | 165 kts | 246° |
| 2026-04-20 23:21 | 54.01885 | -166.22092 | 5878 ft | 167 kts | 248° |
| 2026-04-20 23:22 | 54.01560 | -166.23994 | 5452 ft | 168 kts | 249° |
| 2026-04-20 23:22 | 54.01245 | -166.25908 | 5026 ft | 168 kts | 249° |
| 2026-04-20 23:22 | 54.00943 | -166.27772 | 5067 ft | 160 kts | 249° |
| 2026-04-20 23:22 | 54.00664 | -166.29553 | 5091 ft | 152 kts | 249° |
| 2026-04-20 23:23 | 54.00391 | -166.31313 | 5097 ft | 158 kts | 249° |
| 2026-04-20 23:23 | 54.00098 | -166.33157 | 5113 ft | 165 kts | 249° |
| 2026-04-20 23:23 | 53.99786 | -166.35071 | 5123 ft | 171 kts | 249° |
| 2026-04-20 23:23 | 53.99460 | -166.37039 | 5007 ft | 174 kts | 249° |
| 2026-04-20 23:24 | 53.99132 | -166.39014 | 5042 ft | 173 kts | 249° |
| 2026-04-20 23:24 | 53.98810 | -166.40954 | 5064 ft | 173 kts | 249° |
| 2026-04-20 23:24 | 53.98478 | -166.42955 | 5081 ft | 174 kts | 249° |
| 2026-04-20 23:24 | 53.98160 | -166.44944 | 5098 ft | 175 kts | 249° |
| 2026-04-20 23:25 | 53.97857 | -166.46925 | 5104 ft | 176 kts | 249° |
| 2026-04-20 23:25 | 53.97555 | -166.48939 | 5101 ft | 176 kts | 249° |
| 2026-04-20 23:25 | 53.97261 | -166.50940 | 5087 ft | 174 kts | 249° |
| 2026-04-20 23:25 | 53.96972 | -166.52923 | 5077 ft | 173 kts | 249° |
| 2026-04-20 23:26 | 53.96686 | -166.54898 | 5076 ft | 171 kts | 249° |
| 2026-04-20 23:26 | 53.96419 | -166.56751 | 5068 ft | 152 kts | 249° |
| 2026-04-20 23:26 | 53.96199 | -166.58395 | 5054 ft | 133 kts | 249° |
| 2026-04-20 23:26 | 53.96030 | -166.59864 | 4955 ft | 124 kts | 250° |
| 2026-04-20 23:27 | 53.95975 | -166.61393 | 4535 ft | 148 kts | 278° |
| 2026-04-20 23:27 | 53.96110 | -166.63066 | 4180 ft | 139 kts | 242° |
| 2026-04-20 23:27 | 53.95296 | -166.63573 | 3619 ft | 156 kts | 164° |
| 2026-04-20 23:27 | 53.94562 | -166.62046 | 2875 ft | 176 kts | 127° |
| 2026-04-20 23:28 | 53.93887 | -166.60409 | 2316 ft | 164 kts | 132° |
| 2026-04-20 23:28 | 53.93170 | -166.59019 | 1692 ft | 151 kts | 140° |
| 2026-04-20 23:28 | 53.92341 | -166.58079 | 1126 ft | 133 kts | 156° |
| 2026-04-20 23:28 | 53.91600 | -166.57226 | 631 ft | 126 kts | 141° |
| 2026-04-20 23:29 | 53.90941 | -166.56195 | 292 ft | 125 kts | 142° |
| 2026-04-20 23:29 | 53.90362 | -166.55271 | 51 ft | 106 kts | 144° |
| 2026-04-20 23:29 | 53.89879 | -166.54492 | 12 ft | 75 kts | 135° |
| 2026-04-20 23:29 | 53.89659 | -166.54136 | 14 ft | 24 kts | 133° |
| 2026-04-20 23:30 | 53.89572 | -166.54066 | 14 ft | 9 kts | 210° |
| 2026-04-20 23:30 | 53.89531 | -166.54120 | 15 ft | 0 kts | 230° |
| 2026-04-20 23:31 | 53.89523 | -166.54164 | 14 ft | 11 kts | 269° |
| 2026-04-20 23:31 | 53.89542 | -166.54219 | 16 ft | 4 kts | 275° |
| 2026-04-20 23:31 | 53.89522 | -166.54240 | 14 ft | 0 kts | 186° |